sensor_id;sensor_type;location;lat;lon;timestamp;P1;durP1;ratioP1;P2;durP2;ratioP2
5460;SDS011;2753;49.196;8.286;2023-08-06T00:00:10;4.43;;;2.53;;
5460;SDS011;2753;49.196;8.286;2023-08-06T00:02:35;3.80;;;2.93;;
5460;SDS011;2753;49.196;8.286;2023-08-06T00:05:01;4.00;;;2.83;;
5460;SDS011;2753;49.196;8.286;2023-08-06T00:07:28;2.23;;;2.07;;
5460;SDS011;2753;49.196;8.286;2023-08-06T00:09:53;2.90;;;2.70;;
5460;SDS011;2753;49.196;8.286;2023-08-06T00:12:19;2.60;;;2.50;;
5460;SDS011;2753;49.196;8.286;2023-08-06T00:14:45;10.03;;;2.63;;
5460;SDS011;2753;49.196;8.286;2023-08-06T00:17:10;3.00;;;2.53;;
5460;SDS011;2753;49.196;8.286;2023-08-06T00:19:36;5.40;;;2.43;;
5460;SDS011;2753;49.196;8.286;2023-08-06T00:22:02;5.80;;;3.13;;
5460;SDS011;2753;49.196;8.286;2023-08-06T00:24:28;2.80;;;2.43;;
5460;SDS011;2753;49.196;8.286;2023-08-06T00:26:53;4.00;;;2.40;;
5460;SDS011;2753;49.196;8.286;2023-08-06T00:29:19;2.57;;;2.47;;
5460;SDS011;2753;49.196;8.286;2023-08-06T00:31:45;2.23;;;2.10;;
5460;SDS011;2753;49.196;8.286;2023-08-06T00:34:10;7.13;;;2.40;;
5460;SDS011;2753;49.196;8.286;2023-08-06T00:36:36;4.40;;;2.73;;
5460;SDS011;2753;49.196;8.286;2023-08-06T00:39:02;2.47;;;2.27;;
5460;SDS011;2753;49.196;8.286;2023-08-06T00:41:28;5.90;;;2.17;;
5460;SDS011;2753;49.196;8.286;2023-08-06T00:43:53;2.03;;;1.93;;
5460;SDS011;2753;49.196;8.286;2023-08-06T00:46:19;2.83;;;2.53;;
5460;SDS011;2753;49.196;8.286;2023-08-06T00:48:45;3.13;;;2.60;;
5460;SDS011;2753;49.196;8.286;2023-08-06T00:51:12;6.17;;;2.37;;
5460;SDS011;2753;49.196;8.286;2023-08-06T00:53:38;3.03;;;2.27;;
5460;SDS011;2753;49.196;8.286;2023-08-06T00:56:04;3.20;;;2.90;;
5460;SDS011;2753;49.196;8.286;2023-08-06T00:58:31;2.70;;;2.60;;
5460;SDS011;2753;49.196;8.286;2023-08-06T01:00:57;2.57;;;2.33;;
5460;SDS011;2753;49.196;8.286;2023-08-06T01:03:23;3.13;;;2.13;;
5460;SDS011;2753;49.196;8.286;2023-08-06T01:05:49;2.80;;;2.20;;
5460;SDS011;2753;49.196;8.286;2023-08-06T01:08:18;2.60;;;2.33;;
5460;SDS011;2753;49.196;8.286;2023-08-06T01:16:17;2.07;;;1.90;;
5460;SDS011;2753;49.196;8.286;2023-08-06T01:18:44;6.93;;;2.60;;
5460;SDS011;2753;49.196;8.286;2023-08-06T01:21:18;2.47;;;2.27;;
5460;SDS011;2753;49.196;8.286;2023-08-06T01:23:44;2.53;;;2.33;;
5460;SDS011;2753;49.196;8.286;2023-08-06T01:26:27;3.83;;;2.33;;
5460;SDS011;2753;49.196;8.286;2023-08-06T01:31:37;3.03;;;2.53;;
5460;SDS011;2753;49.196;8.286;2023-08-06T01:34:05;3.63;;;1.83;;
5460;SDS011;2753;49.196;8.286;2023-08-06T01:36:46;4.50;;;2.57;;
5460;SDS011;2753;49.196;8.286;2023-08-06T01:39:13;3.10;;;2.30;;
5460;SDS011;2753;49.196;8.286;2023-08-06T01:41:39;4.77;;;2.77;;
5460;SDS011;2753;49.196;8.286;2023-08-06T01:44:04;3.73;;;2.10;;
5460;SDS011;2753;49.196;8.286;2023-08-06T01:46:30;2.30;;;2.00;;
5460;SDS011;2753;49.196;8.286;2023-08-06T01:48:56;2.23;;;2.10;;
5460;SDS011;2753;49.196;8.286;2023-08-06T01:51:21;2.93;;;2.40;;
5460;SDS011;2753;49.196;8.286;2023-08-06T01:53:47;3.40;;;2.20;;
5460;SDS011;2753;49.196;8.286;2023-08-06T01:56:13;3.03;;;2.07;;
5460;SDS011;2753;49.196;8.286;2023-08-06T01:58:38;4.70;;;1.93;;
5460;SDS011;2753;49.196;8.286;2023-08-06T02:01:04;2.80;;;2.50;;
5460;SDS011;2753;49.196;8.286;2023-08-06T02:03:29;12.43;;;1.93;;
5460;SDS011;2753;49.196;8.286;2023-08-06T02:05:55;6.93;;;2.30;;
5460;SDS011;2753;49.196;8.286;2023-08-06T02:08:21;8.83;;;2.13;;
5460;SDS011;2753;49.196;8.286;2023-08-06T02:10:46;2.17;;;2.00;;
5460;SDS011;2753;49.196;8.286;2023-08-06T02:13:12;4.30;;;2.10;;
5460;SDS011;2753;49.196;8.286;2023-08-06T02:15:44;5.10;;;1.90;;
5460;SDS011;2753;49.196;8.286;2023-08-06T02:18:12;2.50;;;2.27;;
5460;SDS011;2753;49.196;8.286;2023-08-06T02:20:39;2.87;;;1.97;;
5460;SDS011;2753;49.196;8.286;2023-08-06T02:23:05;3.10;;;2.30;;
5460;SDS011;2753;49.196;8.286;2023-08-06T02:25:31;3.57;;;1.60;;
5460;SDS011;2753;49.196;8.286;2023-08-06T02:27:57;3.13;;;2.40;;
5460;SDS011;2753;49.196;8.286;2023-08-06T02:30:23;1.97;;;1.87;;
5460;SDS011;2753;49.196;8.286;2023-08-06T02:32:48;10.23;;;2.93;;
5460;SDS011;2753;49.196;8.286;2023-08-06T02:35:14;4.27;;;2.33;;
5460;SDS011;2753;49.196;8.286;2023-08-06T02:37:40;6.27;;;2.87;;
5460;SDS011;2753;49.196;8.286;2023-08-06T02:40:05;2.10;;;2.00;;
5460;SDS011;2753;49.196;8.286;2023-08-06T02:42:32;9.70;;;2.23;;
5460;SDS011;2753;49.196;8.286;2023-08-06T02:44:57;2.20;;;2.00;;
5460;SDS011;2753;49.196;8.286;2023-08-06T02:47:23;3.90;;;2.00;;
5460;SDS011;2753;49.196;8.286;2023-08-06T02:49:49;2.33;;;2.13;;
5460;SDS011;2753;49.196;8.286;2023-08-06T02:52:14;2.00;;;1.80;;
5460;SDS011;2753;49.196;8.286;2023-08-06T02:54:40;2.47;;;2.27;;
5460;SDS011;2753;49.196;8.286;2023-08-06T02:57:06;2.57;;;2.10;;
5460;SDS011;2753;49.196;8.286;2023-08-06T02:59:32;4.50;;;2.10;;
5460;SDS011;2753;49.196;8.286;2023-08-06T03:01:57;2.20;;;1.77;;
5460;SDS011;2753;49.196;8.286;2023-08-06T03:04:23;3.13;;;1.90;;
5460;SDS011;2753;49.196;8.286;2023-08-06T03:06:49;3.20;;;2.10;;
5460;SDS011;2753;49.196;8.286;2023-08-06T03:09:16;2.50;;;1.70;;
5460;SDS011;2753;49.196;8.286;2023-08-06T03:11:44;2.03;;;1.93;;
5460;SDS011;2753;49.196;8.286;2023-08-06T03:14:10;2.57;;;1.83;;
5460;SDS011;2753;49.196;8.286;2023-08-06T03:16:36;3.50;;;1.70;;
5460;SDS011;2753;49.196;8.286;2023-08-06T03:19:01;6.43;;;2.40;;
5460;SDS011;2753;49.196;8.286;2023-08-06T03:21:27;4.77;;;1.80;;
5460;SDS011;2753;49.196;8.286;2023-08-06T03:23:52;2.30;;;1.53;;
5460;SDS011;2753;49.196;8.286;2023-08-06T03:26:18;4.87;;;2.00;;
5460;SDS011;2753;49.196;8.286;2023-08-06T03:28:44;6.17;;;2.10;;
5460;SDS011;2753;49.196;8.286;2023-08-06T03:31:10;4.03;;;1.40;;
5460;SDS011;2753;49.196;8.286;2023-08-06T03:33:35;3.63;;;1.47;;
5460;SDS011;2753;49.196;8.286;2023-08-06T03:36:01;3.80;;;1.27;;
5460;SDS011;2753;49.196;8.286;2023-08-06T03:38:27;3.43;;;1.37;;
5460;SDS011;2753;49.196;8.286;2023-08-06T03:40:52;5.00;;;1.37;;
5460;SDS011;2753;49.196;8.286;2023-08-06T03:43:18;4.50;;;1.10;;
5460;SDS011;2753;49.196;8.286;2023-08-06T03:45:44;2.50;;;1.10;;
5460;SDS011;2753;49.196;8.286;2023-08-06T03:48:10;4.97;;;1.20;;
5460;SDS011;2753;49.196;8.286;2023-08-06T03:50:35;3.00;;;1.83;;
5460;SDS011;2753;49.196;8.286;2023-08-06T03:53:01;9.47;;;1.40;;
5460;SDS011;2753;49.196;8.286;2023-08-06T03:55:27;3.83;;;1.33;;
5460;SDS011;2753;49.196;8.286;2023-08-06T03:57:53;5.90;;;1.80;;
5460;SDS011;2753;49.196;8.286;2023-08-06T04:00:19;6.90;;;1.20;;
5460;SDS011;2753;49.196;8.286;2023-08-06T04:02:44;3.50;;;1.30;;
5460;SDS011;2753;49.196;8.286;2023-08-06T04:05:10;3.40;;;1.10;;
5460;SDS011;2753;49.196;8.286;2023-08-06T04:07:37;5.63;;;1.27;;
5460;SDS011;2753;49.196;8.286;2023-08-06T04:10:03;5.00;;;1.20;;
5460;SDS011;2753;49.196;8.286;2023-08-06T04:12:30;3.97;;;1.50;;
5460;SDS011;2753;49.196;8.286;2023-08-06T04:14:57;3.13;;;1.33;;
5460;SDS011;2753;49.196;8.286;2023-08-06T04:17:23;5.30;;;1.33;;
5460;SDS011;2753;49.196;8.286;2023-08-06T04:19:53;6.27;;;1.77;;
5460;SDS011;2753;49.196;8.286;2023-08-06T04:22:21;2.47;;;1.10;;
5460;SDS011;2753;49.196;8.286;2023-08-06T04:24:46;6.00;;;1.17;;
5460;SDS011;2753;49.196;8.286;2023-08-06T04:27:13;4.00;;;1.57;;
5460;SDS011;2753;49.196;8.286;2023-08-06T04:29:39;7.63;;;1.30;;
5460;SDS011;2753;49.196;8.286;2023-08-06T04:32:06;3.80;;;1.10;;
5460;SDS011;2753;49.196;8.286;2023-08-06T04:34:34;6.27;;;1.37;;
5460;SDS011;2753;49.196;8.286;2023-08-06T04:37:00;2.20;;;1.10;;
5460;SDS011;2753;49.196;8.286;2023-08-06T04:39:26;4.37;;;1.03;;
5460;SDS011;2753;49.196;8.286;2023-08-06T04:41:52;11.13;;;1.53;;
5460;SDS011;2753;49.196;8.286;2023-08-06T04:44:17;6.40;;;0.90;;
5460;SDS011;2753;49.196;8.286;2023-08-06T04:46:43;7.00;;;1.50;;
5460;SDS011;2753;49.196;8.286;2023-08-06T04:49:09;3.17;;;1.00;;
5460;SDS011;2753;49.196;8.286;2023-08-06T04:51:35;4.27;;;1.50;;
5460;SDS011;2753;49.196;8.286;2023-08-06T04:54:00;10.40;;;1.40;;
5460;SDS011;2753;49.196;8.286;2023-08-06T04:56:26;5.10;;;1.30;;
5460;SDS011;2753;49.196;8.286;2023-08-06T04:58:52;3.63;;;1.23;;
5460;SDS011;2753;49.196;8.286;2023-08-06T05:01:18;9.70;;;1.70;;
5460;SDS011;2753;49.196;8.286;2023-08-06T05:03:43;6.80;;;1.43;;
5460;SDS011;2753;49.196;8.286;2023-08-06T05:06:09;5.30;;;0.83;;
5460;SDS011;2753;49.196;8.286;2023-08-06T05:08:35;3.93;;;1.90;;
5460;SDS011;2753;49.196;8.286;2023-08-06T05:11:01;5.83;;;1.10;;
5460;SDS011;2753;49.196;8.286;2023-08-06T05:13:27;5.50;;;1.53;;
5460;SDS011;2753;49.196;8.286;2023-08-06T05:15:53;6.20;;;1.47;;
5460;SDS011;2753;49.196;8.286;2023-08-06T05:18:19;4.70;;;1.40;;
5460;SDS011;2753;49.196;8.286;2023-08-06T05:20:45;12.50;;;1.70;;
5460;SDS011;2753;49.196;8.286;2023-08-06T05:23:10;2.27;;;1.10;;
5460;SDS011;2753;49.196;8.286;2023-08-06T05:25:36;4.33;;;1.07;;
5460;SDS011;2753;49.196;8.286;2023-08-06T05:28:03;3.50;;;1.23;;
5460;SDS011;2753;49.196;8.286;2023-08-06T05:30:28;5.30;;;1.40;;
5460;SDS011;2753;49.196;8.286;2023-08-06T05:32:54;6.10;;;1.10;;
5460;SDS011;2753;49.196;8.286;2023-08-06T05:35:20;2.33;;;1.00;;
5460;SDS011;2753;49.196;8.286;2023-08-06T05:37:47;7.57;;;0.90;;
5460;SDS011;2753;49.196;8.286;2023-08-06T05:40:12;2.77;;;1.00;;
5460;SDS011;2753;49.196;8.286;2023-08-06T05:42:39;4.00;;;0.97;;
5460;SDS011;2753;49.196;8.286;2023-08-06T05:45:05;7.00;;;1.00;;
5460;SDS011;2753;49.196;8.286;2023-08-06T05:47:31;6.17;;;1.40;;
5460;SDS011;2753;49.196;8.286;2023-08-06T05:49:56;6.13;;;1.30;;
5460;SDS011;2753;49.196;8.286;2023-08-06T05:52:22;1.97;;;0.73;;
5460;SDS011;2753;49.196;8.286;2023-08-06T05:54:47;2.20;;;0.70;;
5460;SDS011;2753;49.196;8.286;2023-08-06T05:57:13;2.10;;;0.70;;
5460;SDS011;2753;49.196;8.286;2023-08-06T05:59:40;4.27;;;1.00;;
5460;SDS011;2753;49.196;8.286;2023-08-06T06:02:06;2.87;;;0.93;;
5460;SDS011;2753;49.196;8.286;2023-08-06T06:04:31;1.20;;;0.80;;
5460;SDS011;2753;49.196;8.286;2023-08-06T06:06:57;4.97;;;1.07;;
5460;SDS011;2753;49.196;8.286;2023-08-06T06:09:23;1.93;;;0.93;;
5460;SDS011;2753;49.196;8.286;2023-08-06T06:11:48;0.90;;;0.70;;
5460;SDS011;2753;49.196;8.286;2023-08-06T06:14:15;1.90;;;0.80;;
5460;SDS011;2753;49.196;8.286;2023-08-06T06:16:44;3.47;;;0.70;;
5460;SDS011;2753;49.196;8.286;2023-08-06T06:19:10;7.73;;;0.70;;
5460;SDS011;2753;49.196;8.286;2023-08-06T06:21:36;2.57;;;0.70;;
5460;SDS011;2753;49.196;8.286;2023-08-06T06:24:03;0.70;;;0.63;;
5460;SDS011;2753;49.196;8.286;2023-08-06T06:26:30;4.40;;;0.60;;
5460;SDS011;2753;49.196;8.286;2023-08-06T06:28:56;4.73;;;0.97;;
5460;SDS011;2753;49.196;8.286;2023-08-06T06:31:21;0.90;;;0.60;;
5460;SDS011;2753;49.196;8.286;2023-08-06T06:33:47;1.53;;;0.70;;
5460;SDS011;2753;49.196;8.286;2023-08-06T06:36:13;0.67;;;0.50;;
5460;SDS011;2753;49.196;8.286;2023-08-06T06:38:38;2.20;;;0.67;;
5460;SDS011;2753;49.196;8.286;2023-08-06T06:41:04;0.57;;;0.50;;
5460;SDS011;2753;49.196;8.286;2023-08-06T06:43:30;1.23;;;0.63;;
5460;SDS011;2753;49.196;8.286;2023-08-06T06:45:56;1.10;;;0.53;;
5460;SDS011;2753;49.196;8.286;2023-08-06T06:48:26;1.60;;;0.50;;
5460;SDS011;2753;49.196;8.286;2023-08-06T06:50:53;2.60;;;0.50;;
5460;SDS011;2753;49.196;8.286;2023-08-06T06:53:19;0.60;;;0.60;;
5460;SDS011;2753;49.196;8.286;2023-08-06T06:55:45;2.17;;;0.40;;
5460;SDS011;2753;49.196;8.286;2023-08-06T06:58:13;0.60;;;0.60;;
5460;SDS011;2753;49.196;8.286;2023-08-06T07:00:40;1.37;;;0.50;;
5460;SDS011;2753;49.196;8.286;2023-08-06T07:03:06;3.43;;;0.67;;
5460;SDS011;2753;49.196;8.286;2023-08-06T07:05:32;0.90;;;0.50;;
5460;SDS011;2753;49.196;8.286;2023-08-06T07:07:58;1.77;;;0.60;;
5460;SDS011;2753;49.196;8.286;2023-08-06T07:10:23;4.57;;;0.60;;
5460;SDS011;2753;49.196;8.286;2023-08-06T07:12:50;3.90;;;0.50;;
5460;SDS011;2753;49.196;8.286;2023-08-06T07:15:16;1.73;;;0.50;;
5460;SDS011;2753;49.196;8.286;2023-08-06T07:17:42;1.00;;;0.50;;
5460;SDS011;2753;49.196;8.286;2023-08-06T07:20:08;4.67;;;0.40;;
5460;SDS011;2753;49.196;8.286;2023-08-06T07:22:34;1.40;;;0.60;;
5460;SDS011;2753;49.196;8.286;2023-08-06T07:25:00;0.93;;;0.43;;
5460;SDS011;2753;49.196;8.286;2023-08-06T07:27:26;1.27;;;0.50;;
5460;SDS011;2753;49.196;8.286;2023-08-06T07:29:52;0.47;;;0.30;;
5460;SDS011;2753;49.196;8.286;2023-08-06T07:32:17;1.03;;;0.40;;
5460;SDS011;2753;49.196;8.286;2023-08-06T07:34:43;2.83;;;0.57;;
5460;SDS011;2753;49.196;8.286;2023-08-06T07:37:09;2.10;;;0.50;;
5460;SDS011;2753;49.196;8.286;2023-08-06T07:39:34;5.70;;;0.70;;
5460;SDS011;2753;49.196;8.286;2023-08-06T07:42:00;2.50;;;0.60;;
5460;SDS011;2753;49.196;8.286;2023-08-06T07:44:29;0.53;;;0.50;;
5460;SDS011;2753;49.196;8.286;2023-08-06T07:46:55;1.23;;;0.50;;
5460;SDS011;2753;49.196;8.286;2023-08-06T07:49:21;1.80;;;0.40;;
5460;SDS011;2753;49.196;8.286;2023-08-06T07:51:47;0.50;;;0.43;;
5460;SDS011;2753;49.196;8.286;2023-08-06T07:54:12;3.00;;;0.40;;
5460;SDS011;2753;49.196;8.286;2023-08-06T07:56:38;0.50;;;0.47;;
5460;SDS011;2753;49.196;8.286;2023-08-06T07:59:04;8.43;;;0.60;;
5460;SDS011;2753;49.196;8.286;2023-08-06T08:01:30;0.70;;;0.63;;
5460;SDS011;2753;49.196;8.286;2023-08-06T08:03:55;1.30;;;0.70;;
5460;SDS011;2753;49.196;8.286;2023-08-06T08:06:21;0.50;;;0.40;;
5460;SDS011;2753;49.196;8.286;2023-08-06T08:08:47;0.60;;;0.33;;
5460;SDS011;2753;49.196;8.286;2023-08-06T08:11:12;0.60;;;0.40;;
5460;SDS011;2753;49.196;8.286;2023-08-06T08:13:39;0.50;;;0.40;;
5460;SDS011;2753;49.196;8.286;2023-08-06T08:16:05;0.60;;;0.60;;
5460;SDS011;2753;49.196;8.286;2023-08-06T08:18:30;0.50;;;0.50;;
5460;SDS011;2753;49.196;8.286;2023-08-06T08:20:56;2.10;;;0.60;;
5460;SDS011;2753;49.196;8.286;2023-08-06T08:23:22;0.90;;;0.57;;
5460;SDS011;2753;49.196;8.286;2023-08-06T08:25:48;0.50;;;0.40;;
5460;SDS011;2753;49.196;8.286;2023-08-06T08:28:19;0.43;;;0.30;;
5460;SDS011;2753;49.196;8.286;2023-08-06T08:30:46;0.50;;;0.40;;
5460;SDS011;2753;49.196;8.286;2023-08-06T08:33:12;0.87;;;0.40;;
5460;SDS011;2753;49.196;8.286;2023-08-06T08:35:37;0.50;;;0.50;;
5460;SDS011;2753;49.196;8.286;2023-08-06T08:38:03;0.40;;;0.40;;
5460;SDS011;2753;49.196;8.286;2023-08-06T08:40:32;0.47;;;0.30;;
5460;SDS011;2753;49.196;8.286;2023-08-06T08:43:00;0.40;;;0.30;;
5460;SDS011;2753;49.196;8.286;2023-08-06T08:45:28;0.50;;;0.40;;
5460;SDS011;2753;49.196;8.286;2023-08-06T08:47:54;0.50;;;0.37;;
5460;SDS011;2753;49.196;8.286;2023-08-06T08:50:21;1.33;;;0.40;;
5460;SDS011;2753;49.196;8.286;2023-08-06T08:52:47;0.50;;;0.30;;
5460;SDS011;2753;49.196;8.286;2023-08-06T08:55:15;1.00;;;0.40;;
5460;SDS011;2753;49.196;8.286;2023-08-06T08:57:41;0.90;;;0.40;;
5460;SDS011;2753;49.196;8.286;2023-08-06T09:00:13;0.40;;;0.30;;
5460;SDS011;2753;49.196;8.286;2023-08-06T09:02:39;0.50;;;0.40;;
5460;SDS011;2753;49.196;8.286;2023-08-06T09:05:10;0.50;;;0.40;;
5460;SDS011;2753;49.196;8.286;2023-08-06T09:07:41;0.50;;;0.40;;
5460;SDS011;2753;49.196;8.286;2023-08-06T09:10:10;0.80;;;0.50;;
5460;SDS011;2753;49.196;8.286;2023-08-06T09:12:39;0.40;;;0.33;;
5460;SDS011;2753;49.196;8.286;2023-08-06T09:15:08;0.40;;;0.30;;
5460;SDS011;2753;49.196;8.286;2023-08-06T09:17:35;0.70;;;0.47;;
5460;SDS011;2753;49.196;8.286;2023-08-06T09:20:12;0.90;;;0.37;;
5460;SDS011;2753;49.196;8.286;2023-08-06T09:22:40;0.40;;;0.30;;
5460;SDS011;2753;49.196;8.286;2023-08-06T09:25:21;0.90;;;0.40;;
5460;SDS011;2753;49.196;8.286;2023-08-06T09:27:51;5.50;;;0.47;;
5460;SDS011;2753;49.196;8.286;2023-08-06T09:30:36;1.67;;;0.60;;
5460;SDS011;2753;49.196;8.286;2023-08-06T09:33:08;0.50;;;0.40;;
5460;SDS011;2753;49.196;8.286;2023-08-06T09:35:41;0.50;;;0.40;;
5460;SDS011;2753;49.196;8.286;2023-08-06T09:38:12;3.43;;;0.40;;
5460;SDS011;2753;49.196;8.286;2023-08-06T09:40:47;0.50;;;0.47;;
5460;SDS011;2753;49.196;8.286;2023-08-06T09:43:20;0.40;;;0.40;;
5460;SDS011;2753;49.196;8.286;2023-08-06T09:45:54;0.50;;;0.40;;
5460;SDS011;2753;49.196;8.286;2023-08-06T09:48:21;0.40;;;0.40;;
5460;SDS011;2753;49.196;8.286;2023-08-06T09:50:51;0.50;;;0.40;;
5460;SDS011;2753;49.196;8.286;2023-08-06T09:53:19;0.50;;;0.40;;
5460;SDS011;2753;49.196;8.286;2023-08-06T09:55:45;0.50;;;0.40;;
5460;SDS011;2753;49.196;8.286;2023-08-06T09:58:14;0.40;;;0.30;;
5460;SDS011;2753;49.196;8.286;2023-08-06T10:00:43;0.80;;;0.40;;
5460;SDS011;2753;49.196;8.286;2023-08-06T10:03:13;1.20;;;0.60;;
5460;SDS011;2753;49.196;8.286;2023-08-06T10:05:48;0.90;;;0.40;;
5460;SDS011;2753;49.196;8.286;2023-08-06T10:08:16;0.70;;;0.50;;
5460;SDS011;2753;49.196;8.286;2023-08-06T10:17:44;1.23;;;0.40;;
5460;SDS011;2753;49.196;8.286;2023-08-06T10:20:13;0.50;;;0.50;;
5460;SDS011;2753;49.196;8.286;2023-08-06T10:22:45;0.97;;;0.63;;
5460;SDS011;2753;49.196;8.286;2023-08-06T10:25:30;0.60;;;0.50;;
5460;SDS011;2753;49.196;8.286;2023-08-06T10:27:58;3.27;;;0.60;;
5460;SDS011;2753;49.196;8.286;2023-08-06T10:30:27;0.60;;;0.50;;
5460;SDS011;2753;49.196;8.286;2023-08-06T10:33:12;1.33;;;0.60;;
5460;SDS011;2753;49.196;8.286;2023-08-06T10:38:21;2.13;;;0.80;;
5460;SDS011;2753;49.196;8.286;2023-08-06T10:43:36;2.60;;;0.73;;
5460;SDS011;2753;49.196;8.286;2023-08-06T10:46:21;0.70;;;0.70;;
5460;SDS011;2753;49.196;8.286;2023-08-06T10:48:59;0.60;;;0.60;;
5460;SDS011;2753;49.196;8.286;2023-08-06T10:51:28;0.97;;;0.97;;
5460;SDS011;2753;49.196;8.286;2023-08-06T10:53:59;2.10;;;0.80;;
5460;SDS011;2753;49.196;8.286;2023-08-06T10:56:25;1.63;;;0.90;;
5460;SDS011;2753;49.196;8.286;2023-08-06T10:58:54;2.33;;;0.80;;
5460;SDS011;2753;49.196;8.286;2023-08-06T11:01:23;1.43;;;0.83;;
5460;SDS011;2753;49.196;8.286;2023-08-06T11:04:00;3.50;;;1.10;;
5460;SDS011;2753;49.196;8.286;2023-08-06T11:06:34;1.03;;;0.93;;
5460;SDS011;2753;49.196;8.286;2023-08-06T11:09:03;1.53;;;0.70;;
5460;SDS011;2753;49.196;8.286;2023-08-06T11:11:32;0.90;;;0.90;;
5460;SDS011;2753;49.196;8.286;2023-08-06T11:14:14;1.80;;;0.93;;
5460;SDS011;2753;49.196;8.286;2023-08-06T11:16:46;0.83;;;0.83;;
5460;SDS011;2753;49.196;8.286;2023-08-06T11:19:22;1.53;;;1.00;;
5460;SDS011;2753;49.196;8.286;2023-08-06T11:21:54;1.30;;;1.20;;
5460;SDS011;2753;49.196;8.286;2023-08-06T11:24:28;2.10;;;1.30;;
5460;SDS011;2753;49.196;8.286;2023-08-06T11:26:56;2.10;;;1.10;;
5460;SDS011;2753;49.196;8.286;2023-08-06T11:29:27;1.20;;;0.90;;
5460;SDS011;2753;49.196;8.286;2023-08-06T11:32:04;2.17;;;1.97;;
5460;SDS011;2753;49.196;8.286;2023-08-06T11:34:47;2.90;;;1.60;;
5460;SDS011;2753;49.196;8.286;2023-08-06T11:37:21;4.47;;;1.17;;
5460;SDS011;2753;49.196;8.286;2023-08-06T11:39:50;2.60;;;1.50;;
5460;SDS011;2753;49.196;8.286;2023-08-06T11:42:16;6.23;;;3.63;;
5460;SDS011;2753;49.196;8.286;2023-08-06T11:44:50;4.80;;;4.40;;
5460;SDS011;2753;49.196;8.286;2023-08-06T11:47:16;4.17;;;1.97;;
5460;SDS011;2753;49.196;8.286;2023-08-06T11:49:47;5.23;;;2.30;;
5460;SDS011;2753;49.196;8.286;2023-08-06T11:52:17;1.97;;;1.87;;
5460;SDS011;2753;49.196;8.286;2023-08-06T11:54:45;1.93;;;1.67;;
5460;SDS011;2753;49.196;8.286;2023-08-06T11:57:15;1.47;;;1.30;;
5460;SDS011;2753;49.196;8.286;2023-08-06T11:59:47;3.63;;;1.67;;
5460;SDS011;2753;49.196;8.286;2023-08-06T12:02:15;6.00;;;1.50;;
5460;SDS011;2753;49.196;8.286;2023-08-06T12:04:57;3.97;;;1.90;;
5460;SDS011;2753;49.196;8.286;2023-08-06T12:07:42;2.70;;;1.43;;
5460;SDS011;2753;49.196;8.286;2023-08-06T12:10:24;4.90;;;1.87;;
5460;SDS011;2753;49.196;8.286;2023-08-06T12:12:53;6.07;;;1.60;;
5460;SDS011;2753;49.196;8.286;2023-08-06T12:15:30;3.53;;;1.20;;
5460;SDS011;2753;49.196;8.286;2023-08-06T12:17:58;2.10;;;1.47;;
5460;SDS011;2753;49.196;8.286;2023-08-06T12:20:27;3.80;;;1.73;;
5460;SDS011;2753;49.196;8.286;2023-08-06T12:22:56;3.53;;;1.70;;
5460;SDS011;2753;49.196;8.286;2023-08-06T12:25:24;4.33;;;1.77;;
5460;SDS011;2753;49.196;8.286;2023-08-06T12:27:55;1.87;;;1.40;;
5460;SDS011;2753;49.196;8.286;2023-08-06T12:30:23;3.53;;;2.10;;
5460;SDS011;2753;49.196;8.286;2023-08-06T12:32:49;2.33;;;1.70;;
5460;SDS011;2753;49.196;8.286;2023-08-06T12:35:20;3.83;;;1.40;;
5460;SDS011;2753;49.196;8.286;2023-08-06T12:40:29;1.63;;;1.23;;
5460;SDS011;2753;49.196;8.286;2023-08-06T12:43:00;2.83;;;1.47;;
5460;SDS011;2753;49.196;8.286;2023-08-06T12:45:28;3.10;;;2.10;;
5460;SDS011;2753;49.196;8.286;2023-08-06T12:47:57;3.57;;;1.63;;
5460;SDS011;2753;49.196;8.286;2023-08-06T12:50:29;5.60;;;2.43;;
5460;SDS011;2753;49.196;8.286;2023-08-06T12:53:00;2.00;;;1.40;;
5460;SDS011;2753;49.196;8.286;2023-08-06T12:55:28;2.00;;;1.53;;
5460;SDS011;2753;49.196;8.286;2023-08-06T12:58:03;2.03;;;1.40;;
5460;SDS011;2753;49.196;8.286;2023-08-06T13:00:31;4.20;;;1.60;;
5460;SDS011;2753;49.196;8.286;2023-08-06T13:03:02;4.70;;;1.57;;
5460;SDS011;2753;49.196;8.286;2023-08-06T13:05:34;0.80;;;0.70;;
5460;SDS011;2753;49.196;8.286;2023-08-06T13:08:00;1.90;;;1.10;;
5460;SDS011;2753;49.196;8.286;2023-08-06T13:10:36;2.73;;;1.10;;
5460;SDS011;2753;49.196;8.286;2023-08-06T13:13:09;4.17;;;0.90;;
5460;SDS011;2753;49.196;8.286;2023-08-06T13:15:40;2.50;;;1.13;;
5460;SDS011;2753;49.196;8.286;2023-08-06T13:18:11;1.50;;;0.80;;
5460;SDS011;2753;49.196;8.286;2023-08-06T13:20:49;2.20;;;0.77;;
5460;SDS011;2753;49.196;8.286;2023-08-06T13:23:29;0.87;;;0.60;;
5460;SDS011;2753;49.196;8.286;2023-08-06T13:26:07;2.40;;;1.40;;
5460;SDS011;2753;49.196;8.286;2023-08-06T13:28:44;1.43;;;1.03;;
5460;SDS011;2753;49.196;8.286;2023-08-06T13:31:15;1.27;;;0.87;;
5460;SDS011;2753;49.196;8.286;2023-08-06T13:33:44;1.07;;;0.73;;
5460;SDS011;2753;49.196;8.286;2023-08-06T13:36:10;1.47;;;0.97;;
5460;SDS011;2753;49.196;8.286;2023-08-06T13:38:36;0.73;;;0.70;;
5460;SDS011;2753;49.196;8.286;2023-08-06T13:41:13;1.40;;;1.30;;
5460;SDS011;2753;49.196;8.286;2023-08-06T13:43:42;1.37;;;0.80;;
5460;SDS011;2753;49.196;8.286;2023-08-06T13:46:11;1.03;;;0.87;;
5460;SDS011;2753;49.196;8.286;2023-08-06T13:48:47;0.80;;;0.77;;
5460;SDS011;2753;49.196;8.286;2023-08-06T13:51:18;2.03;;;1.17;;
5460;SDS011;2753;49.196;8.286;2023-08-06T13:53:44;1.93;;;0.90;;
5460;SDS011;2753;49.196;8.286;2023-08-06T13:56:13;1.73;;;1.20;;
5460;SDS011;2753;49.196;8.286;2023-08-06T13:58:43;2.13;;;1.43;;
5460;SDS011;2753;49.196;8.286;2023-08-06T14:01:12;1.40;;;1.30;;
5460;SDS011;2753;49.196;8.286;2023-08-06T14:03:41;1.07;;;1.00;;
5460;SDS011;2753;49.196;8.286;2023-08-06T14:06:09;2.17;;;0.90;;
5460;SDS011;2753;49.196;8.286;2023-08-06T14:08:38;1.00;;;1.00;;
5460;SDS011;2753;49.196;8.286;2023-08-06T14:11:04;1.80;;;1.13;;
5460;SDS011;2753;49.196;8.286;2023-08-06T14:13:33;3.77;;;1.00;;
5460;SDS011;2753;49.196;8.286;2023-08-06T14:16:04;2.30;;;1.03;;
5460;SDS011;2753;49.196;8.286;2023-08-06T14:18:38;2.17;;;2.03;;
5460;SDS011;2753;49.196;8.286;2023-08-06T14:21:04;1.60;;;0.93;;
5460;SDS011;2753;49.196;8.286;2023-08-06T14:23:34;1.10;;;0.90;;
5460;SDS011;2753;49.196;8.286;2023-08-06T14:26:10;2.80;;;1.07;;
5460;SDS011;2753;49.196;8.286;2023-08-06T14:28:41;0.60;;;0.60;;
5460;SDS011;2753;49.196;8.286;2023-08-06T14:31:13;1.60;;;0.73;;
5460;SDS011;2753;49.196;8.286;2023-08-06T14:33:43;1.50;;;0.80;;
5460;SDS011;2753;49.196;8.286;2023-08-06T14:36:12;0.83;;;0.70;;
5460;SDS011;2753;49.196;8.286;2023-08-06T14:38:41;0.83;;;0.83;;
5460;SDS011;2753;49.196;8.286;2023-08-06T14:41:10;2.10;;;1.00;;
5460;SDS011;2753;49.196;8.286;2023-08-06T14:43:38;1.37;;;0.97;;
5460;SDS011;2753;49.196;8.286;2023-08-06T14:46:15;2.27;;;1.30;;
5460;SDS011;2753;49.196;8.286;2023-08-06T14:48:43;6.53;;;1.00;;
5460;SDS011;2753;49.196;8.286;2023-08-06T14:51:15;0.70;;;0.70;;
5460;SDS011;2753;49.196;8.286;2023-08-06T14:53:43;1.07;;;0.90;;
5460;SDS011;2753;49.196;8.286;2023-08-06T14:56:09;7.70;;;1.07;;
5460;SDS011;2753;49.196;8.286;2023-08-06T14:58:41;2.60;;;1.03;;
5460;SDS011;2753;49.196;8.286;2023-08-06T15:01:09;1.83;;;0.80;;
5460;SDS011;2753;49.196;8.286;2023-08-06T15:03:35;7.13;;;1.23;;
5460;SDS011;2753;49.196;8.286;2023-08-06T15:06:05;0.90;;;0.80;;
5460;SDS011;2753;49.196;8.286;2023-08-06T15:08:34;2.00;;;0.70;;
5460;SDS011;2753;49.196;8.286;2023-08-06T15:11:08;1.17;;;0.90;;
5460;SDS011;2753;49.196;8.286;2023-08-06T15:13:42;0.97;;;0.97;;
5460;SDS011;2753;49.196;8.286;2023-08-06T15:16:08;0.70;;;0.70;;
5460;SDS011;2753;49.196;8.286;2023-08-06T15:18:40;1.43;;;1.10;;
5460;SDS011;2753;49.196;8.286;2023-08-06T15:21:09;1.10;;;0.87;;
5460;SDS011;2753;49.196;8.286;2023-08-06T15:23:36;0.77;;;0.77;;
5460;SDS011;2753;49.196;8.286;2023-08-06T15:26:06;1.37;;;0.70;;
5460;SDS011;2753;49.196;8.286;2023-08-06T15:28:32;0.70;;;0.70;;
5460;SDS011;2753;49.196;8.286;2023-08-06T15:31:08;0.60;;;0.60;;
5460;SDS011;2753;49.196;8.286;2023-08-06T15:33:40;1.13;;;1.03;;
5460;SDS011;2753;49.196;8.286;2023-08-06T15:36:13;0.87;;;0.87;;
5460;SDS011;2753;49.196;8.286;2023-08-06T15:38:41;1.13;;;1.03;;
5460;SDS011;2753;49.196;8.286;2023-08-06T15:41:10;1.30;;;1.20;;
5460;SDS011;2753;49.196;8.286;2023-08-06T15:43:43;0.80;;;0.70;;